Time;durP1;ratioP1;P1;durP2;ratioP2;P2;SDS_P1;SDS_P2;PMS_P1;PMS_P2;Temp;Humidity;BMP_temperature;BMP_pressure;BME280_temperature;BME280_humidity;BME280_pressure;Samples;Min_cycle;Max_cycle;Signal;HPM_P1;HPM_P2
2022/04/24 00:01:16;;;;;;;3.30;3.00;;;;;;;;;;5001196;28;20225;-57
2022/04/24 00:03:42;;;;;;;3.13;2.90;;;;;;;;;;4997602;28;20197;-57
2022/04/24 00:06:07;;;;;;;3.83;2.97;;;;;;;;;;4991505;28;20197;-58
2022/04/24 00:08:33;;;;;;;3.10;2.90;;;;;;;;;;5002597;28;20828;-58
2022/04/24 00:10:59;;;;;;;3.80;3.03;;;;;;;;;;4994584;28;20268;-57
2022/04/24 00:13:25;;;;;;;3.40;2.90;;;;;;;;;;5004564;28;20213;-58
2022/04/24 00:15:51;;;;;;;3.10;2.73;;;;;;;;;;4980229;28;20255;-58
2022/04/24 00:18:17;;;;;;;3.57;3.03;;;;;;;;;;4994833;28;20751;-57
2022/04/24 00:20:43;;;;;;;3.37;3.07;;;;;;;;;;5005557;28;20272;-57
2022/04/24 00:23:09;;;;;;;3.17;2.80;;;;;;;;;;5008077;28;20681;-57
2022/04/24 00:25:35;;;;;;;3.50;3.20;;;;;;;;;;5005556;28;20193;-57
2022/04/24 00:28:02;;;;;;;3.47;2.87;;;;;;;;;;4997330;28;20287;-58
2022/04/24 00:30:28;;;;;;;3.30;3.00;;;;;;;;;;5001174;28;20550;-58
2022/04/24 00:32:54;;;;;;;4.13;3.03;;;;;;;;;;5000807;28;20240;-58
2022/04/24 00:35:20;;;;;;;3.30;3.00;;;;;;;;;;5005618;28;20186;-58
2022/04/24 00:37:46;;;;;;;3.33;3.03;;;;;;;;;;5000857;28;20220;-57
2022/04/24 00:40:12;;;;;;;3.40;3.10;;;;;;;;;;5002331;28;20206;-59
2022/04/24 00:42:38;;;;;;;3.20;3.00;;;;;;;;;;5006164;28;20633;-58
2022/04/24 00:45:04;;;;;;;3.63;3.00;;;;;;;;;;5000272;28;20189;-57
2022/04/24 00:47:30;;;;;;;3.07;2.87;;;;;;;;;;4998367;28;20189;-57
2022/04/24 00:49:55;;;;;;;3.70;3.10;;;;;;;;;;4994678;28;20189;-58
2022/04/24 00:52:21;;;;;;;3.47;3.17;;;;;;;;;;5002047;28;20205;-58
2022/04/24 00:54:47;;;;;;;3.63;3.10;;;;;;;;;;5005902;28;20615;-58
2022/04/24 00:57:14;;;;;;;2.90;2.70;;;;;;;;;;5003007;28;20221;-58
2022/04/24 00:59:40;;;;;;;3.57;3.17;;;;;;;;;;5007472;28;20629;-58
2022/04/24 01:02:06;;;;;;;3.40;3.10;;;;;;;;;;5005917;28;20192;-58
2022/04/24 01:04:34;;;;;;;3.83;3.43;;;;;;;;;;4998585;28;20220;-58
2022/04/24 01:07:00;;;;;;;3.50;3.20;;;;;;;;;;4998551;28;20742;-58
2022/04/24 01:09:26;;;;;;;3.80;3.50;;;;;;;;;;5000390;28;20576;-59
2022/04/24 01:11:55;;;;;;;3.60;3.30;;;;;;;;;;5004966;28;20192;-56
2022/04/24 01:14:22;;;;;;;3.50;3.20;;;;;;;;;;5002472;28;20213;-55
2022/04/24 01:16:48;;;;;;;3.37;3.07;;;;;;;;;;5008783;28;21123;-56
2022/04/24 01:19:14;;;;;;;4.50;3.77;;;;;;;;;;5000456;28;20326;-56
2022/04/24 01:21:43;;;;;;;4.03;3.63;;;;;;;;;;5006084;28;20204;-58
2022/04/24 01:24:09;;;;;;;4.23;3.40;;;;;;;;;;4998343;28;20195;-56
2022/04/24 01:26:35;;;;;;;3.67;3.37;;;;;;;;;;5004080;28;20219;-57
2022/04/24 01:29:01;;;;;;;3.90;3.50;;;;;;;;;;4994668;28;21795;-56
2022/04/24 01:31:28;;;;;;;3.83;3.53;;;;;;;;;;5005257;28;20237;-57
2022/04/24 01:33:54;;;;;;;3.23;3.03;;;;;;;;;;5007924;28;20208;-57
2022/04/24 01:36:20;;;;;;;3.43;3.23;;;;;;;;;;5001898;28;20330;-57
2022/04/24 01:38:46;;;;;;;3.63;3.33;;;;;;;;;;5006307;28;20212;-56
2022/04/24 01:41:11;;;;;;;5.17;3.10;;;;;;;;;;4999588;28;21250;-57
2022/04/24 01:43:37;;;;;;;4.07;3.73;;;;;;;;;;5003854;28;20189;-57
2022/04/24 01:46:04;;;;;;;4.20;3.60;;;;;;;;;;5004619;28;20174;-57
2022/04/24 01:48:33;;;;;;;3.77;3.47;;;;;;;;;;5001693;28;20197;-56
2022/04/24 01:50:59;;;;;;;3.70;3.40;;;;;;;;;;5003936;28;20484;-56
2022/04/24 01:53:25;;;;;;;3.67;3.37;;;;;;;;;;5000631;28;20226;-56
2022/04/24 01:55:51;;;;;;;4.63;3.30;;;;;;;;;;4995360;28;20251;-57
2022/04/24 01:58:17;;;;;;;4.07;3.50;;;;;;;;;;4999407;28;20269;-56
2022/04/24 02:00:42;;;;;;;3.93;3.53;;;;;;;;;;5000211;28;20205;-57
2022/04/24 02:03:08;;;;;;;5.73;3.70;;;;;;;;;;4996396;28;20186;-55
2022/04/24 02:05:34;;;;;;;3.93;3.60;;;;;;;;;;5002933;28;20302;-56
2022/04/24 02:08:00;;;;;;;3.97;3.40;;;;;;;;;;5010143;28;20209;-57
2022/04/24 02:10:26;;;;;;;5.43;3.73;;;;;;;;;;5009115;28;20197;-56
2022/04/24 02:12:52;;;;;;;3.70;3.40;;;;;;;;;;5003058;28;20184;-57
2022/04/24 02:15:18;;;;;;;4.13;3.73;;;;;;;;;;5004450;28;20316;-57
2022/04/24 02:17:44;;;;;;;4.47;3.70;;;;;;;;;;5010346;28;20193;-58
2022/04/24 02:20:10;;;;;;;4.13;3.83;;;;;;;;;;5006805;28;20952;-56
2022/04/24 02:22:36;;;;;;;4.37;3.40;;;;;;;;;;5004993;28;20185;-57
2022/04/24 02:25:03;;;;;;;4.13;3.83;;;;;;;;;;5003490;28;20205;-57
2022/04/24 02:27:29;;;;;;;4.17;3.77;;;;;;;;;;5001958;28;20320;-56
2022/04/24 02:29:55;;;;;;;4.47;4.07;;;;;;;;;;5003686;28;21753;-57
2022/04/24 02:32:21;;;;;;;4.10;3.70;;;;;;;;;;5003827;28;20753;-57
2022/04/24 02:34:47;;;;;;;3.67;3.37;;;;;;;;;;4992832;28;20251;-56
2022/04/24 02:37:13;;;;;;;4.20;3.73;;;;;;;;;;5005406;28;20692;-56
2022/04/24 02:39:39;;;;;;;4.50;4.00;;;;;;;;;;5003276;28;20242;-56
2022/04/24 02:42:05;;;;;;;4.67;4.27;;;;;;;;;;5002507;28;20540;-56
2022/04/24 02:44:31;;;;;;;4.77;4.37;;;;;;;;;;5002536;28;20267;-56
2022/04/24 02:46:57;;;;;;;4.40;4.00;;;;;;;;;;5001732;28;20867;-56
2022/04/24 02:49:22;;;;;;;10.03;4.20;;;;;;;;;;5008041;28;20228;-57
2022/04/24 02:51:48;;;;;;;4.63;4.23;;;;;;;;;;5001125;28;20197;-57
2022/04/24 02:54:14;;;;;;;5.63;4.23;;;;;;;;;;5003663;28;20189;-57
2022/04/24 02:56:41;;;;;;;4.97;4.23;;;;;;;;;;4999933;28;20189;-56
2022/04/24 02:59:07;;;;;;;4.80;4.23;;;;;;;;;;4991771;28;20584;-57
2022/04/24 03:01:36;;;;;;;4.30;3.90;;;;;;;;;;4998720;28;20197;-56
2022/04/24 03:04:02;;;;;;;4.80;4.30;;;;;;;;;;5001832;28;20276;-57
2022/04/24 03:06:28;;;;;;;5.43;4.43;;;;;;;;;;5000412;28;20305;-57
2022/04/24 03:08:54;;;;;;;4.33;3.93;;;;;;;;;;5011640;28;20256;-56
2022/04/24 03:11:20;;;;;;;6.33;4.57;;;;;;;;;;5003955;28;20225;-57
2022/04/24 03:13:46;;;;;;;5.20;4.70;;;;;;;;;;5007702;28;20726;-56
2022/04/24 03:16:12;;;;;;;5.37;4.87;;;;;;;;;;5006198;28;20182;-56
2022/04/24 03:18:38;;;;;;;5.20;4.80;;;;;;;;;;5009012;28;20634;-57
2022/04/24 03:21:04;;;;;;;5.00;4.60;;;;;;;;;;5006257;28;20691;-56
2022/04/24 03:23:30;;;;;;;5.87;5.10;;;;;;;;;;5007771;28;20192;-57
2022/04/24 03:25:56;;;;;;;5.63;5.13;;;;;;;;;;5002986;28;20224;-56
2022/04/24 03:28:22;;;;;;;4.97;4.43;;;;;;;;;;5006959;28;20673;-56
2022/04/24 03:30:48;;;;;;;5.60;5.10;;;;;;;;;;4998220;28;20678;-56
2022/04/24 03:33:14;;;;;;;5.10;4.67;;;;;;;;;;5002010;28;20678;-57
2022/04/24 03:35:40;;;;;;;5.67;4.80;;;;;;;;;;5003132;28;20530;-56
2022/04/24 03:38:06;;;;;;;6.03;5.20;;;;;;;;;;4998941;28;20190;-57
2022/04/24 03:40:32;;;;;;;5.20;4.80;;;;;;;;;;5001648;28;20682;-56
2022/04/24 03:42:58;;;;;;;4.93;4.53;;;;;;;;;;5001058;28;20193;-56
2022/04/24 03:45:24;;;;;;;5.50;4.80;;;;;;;;;;4995827;28;20820;-56
2022/04/24 03:47:51;;;;;;;5.30;4.90;;;;;;;;;;5004951;28;20280;-57
2022/04/24 03:50:19;;;;;;;5.63;5.23;;;;;;;;;;5004672;28;20401;-56
2022/04/24 03:52:45;;;;;;;5.40;4.90;;;;;;;;;;4997671;28;20185;-56
2022/04/24 03:55:10;;;;;;;5.70;5.20;;;;;;;;;;5000072;28;20269;-57
2022/04/24 03:57:36;;;;;;;5.40;5.00;;;;;;;;;;5007200;28;20212;-56
2022/04/24 04:00:03;;;;;;;5.87;5.30;;;;;;;;;;5007406;28;20213;-57
2022/04/24 04:02:29;;;;;;;5.37;4.97;;;;;;;;;;4992385;28;20783;-57
2022/04/24 04:04:55;;;;;;;5.37;4.87;;;;;;;;;;5006047;28;20586;-56
2022/04/24 04:07:21;;;;;;;5.57;5.10;;;;;;;;;;4996732;28;20294;-56
2022/04/24 04:09:47;;;;;;;5.97;5.47;;;;;;;;;;5005662;28;20214;-57
2022/04/24 04:12:13;;;;;;;7.57;4.93;;;;;;;;;;5014001;28;20914;-57
2022/04/24 04:14:39;;;;;;;6.13;5.53;;;;;;;;;;4999582;28;20699;-57
2022/04/24 04:17:05;;;;;;;6.70;6.10;;;;;;;;;;5003486;28;20221;-56
2022/04/24 04:19:31;;;;;;;5.97;5.33;;;;;;;;;;5005445;28;20704;-56
2022/04/24 04:21:57;;;;;;;6.60;5.40;;;;;;;;;;5011406;28;20216;-56
2022/04/24 04:24:23;;;;;;;6.10;5.60;;;;;;;;;;4999377;28;20189;-57
2022/04/24 04:26:49;;;;;;;6.13;5.63;;;;;;;;;;5005569;28;20323;-57
2022/04/24 04:29:15;;;;;;;5.80;5.33;;;;;;;;;;5008080;28;20304;-57
2022/04/24 04:31:41;;;;;;;6.07;5.47;;;;;;;;;;5003107;28;20338;-57
2022/04/24 04:34:07;;;;;;;5.87;5.37;;;;;;;;;;4999461;28;20197;-57
2022/04/24 04:36:33;;;;;;;6.40;5.80;;;;;;;;;;5004661;28;20193;-57
2022/04/24 04:38:59;;;;;;;6.00;5.50;;;;;;;;;;5000529;28;20228;-56
2022/04/24 04:41:24;;;;;;;6.33;5.80;;;;;;;;;;5008896;28;20190;-57
2022/04/24 04:43:51;;;;;;;6.07;5.57;;;;;;;;;;5004486;28;20195;-56
2022/04/24 04:46:17;;;;;;;6.33;5.73;;;;;;;;;;4994322;28;20186;-57
2022/04/24 04:48:43;;;;;;;6.50;5.90;;;;;;;;;;5001832;28;20789;-57
2022/04/24 04:51:09;;;;;;;6.27;5.77;;;;;;;;;;5003764;28;20185;-57
2022/04/24 04:53:35;;;;;;;9.10;5.90;;;;;;;;;;5001929;28;20424;-56
2022/04/24 04:56:00;;;;;;;5.90;5.40;;;;;;;;;;5006455;28;21248;-56
2022/04/24 04:58:26;;;;;;;6.13;5.53;;;;;;;;;;5000554;28;20214;-56
2022/04/24 05:00:52;;;;;;;8.40;6.07;;;;;;;;;;5004565;28;20814;-57
2022/04/24 05:03:18;;;;;;;6.13;5.63;;;;;;;;;;5007494;28;20189;-56
2022/04/24 05:05:44;;;;;;;6.00;5.40;;;;;;;;;;4999393;28;20193;-56
2022/04/24 05:08:10;;;;;;;6.33;5.73;;;;;;;;;;5000029;28;20674;-56
2022/04/24 05:10:36;;;;;;;6.77;6.10;;;;;;;;;;5011248;28;20224;-56
2022/04/24 05:13:02;;;;;;;6.27;5.77;;;;;;;;;;5009446;28;20197;-56
2022/04/24 05:15:28;;;;;;;6.27;5.77;;;;;;;;;;5002206;28;20197;-57
2022/04/24 05:17:54;;;;;;;6.03;5.47;;;;;;;;;;5000539;28;20249;-56
2022/04/24 05:20:20;;;;;;;6.37;5.77;;;;;;;;;;4997572;28;20227;-57
2022/04/24 05:22:46;;;;;;;6.03;5.53;;;;;;;;;;4997083;28;20185;-57
2022/04/24 05:25:14;;;;;;;7.10;5.87;;;;;;;;;;4996187;28;20200;-57
2022/04/24 05:27:40;;;;;;;5.97;5.43;;;;;;;;;;5002428;28;20199;-56
2022/04/24 05:30:07;;;;;;;6.20;5.60;;;;;;;;;;5002908;28;20670;-55
2022/04/24 05:32:40;;;;;;;5.80;5.30;;;;;;;;;;5003455;28;20256;-56
2022/04/24 05:35:06;;;;;;;6.07;5.57;;;;;;;;;;5007626;28;20216;-58
2022/04/24 05:37:32;;;;;;;5.60;5.20;;;;;;;;;;5003929;28;20193;-58
2022/04/24 05:39:58;;;;;;;6.57;6.07;;;;;;;;;;5006646;28;20775;-58
2022/04/24 05:42:24;;;;;;;7.53;5.83;;;;;;;;;;5008814;28;20796;-57
2022/04/24 05:44:50;;;;;;;6.00;5.50;;;;;;;;;;5007631;28;20185;-57
2022/04/24 05:47:16;;;;;;;5.87;5.37;;;;;;;;;;5004938;28;20185;-58
2022/04/24 05:49:42;;;;;;;6.17;5.67;;;;;;;;;;5002812;28;20330;-58
2022/04/24 05:52:08;;;;;;;6.33;5.83;;;;;;;;;;5008115;28;20193;-58
2022/04/24 05:54:34;;;;;;;7.00;6.27;;;;;;;;;;5002818;28;20193;-58
2022/04/24 05:57:00;;;;;;;7.03;5.73;;;;;;;;;;5002379;28;21478;-58
2022/04/24 05:59:26;;;;;;;6.57;5.83;;;;;;;;;;5002950;28;20731;-58
2022/04/24 06:01:52;;;;;;;6.27;5.77;;;;;;;;;;4998400;28;20244;-58
2022/04/24 06:04:18;;;;;;;6.23;5.60;;;;;;;;;;5004400;28;20290;-59
2022/04/24 06:06:44;;;;;;;6.17;5.67;;;;;;;;;;5007674;28;20208;-58
2022/04/24 06:09:09;;;;;;;8.17;6.07;;;;;;;;;;5009099;28;20212;-58
2022/04/24 06:11:37;;;;;;;6.20;5.70;;;;;;;;;;5004585;28;20186;-57
2022/04/24 06:14:03;;;;;;;6.30;5.70;;;;;;;;;;5006374;28;20220;-58
2022/04/24 06:16:29;;;;;;;5.83;5.33;;;;;;;;;;4997910;28;21454;-58
2022/04/24 06:18:55;;;;;;;6.10;5.60;;;;;;;;;;5003708;28;20221;-57
2022/04/24 06:21:21;;;;;;;6.37;5.60;;;;;;;;;;5010766;28;20747;-58
2022/04/24 06:23:47;;;;;;;6.00;5.50;;;;;;;;;;5003023;28;20190;-58
2022/04/24 06:26:13;;;;;;;6.63;6.03;;;;;;;;;;5008394;28;20272;-58
2022/04/24 06:28:39;;;;;;;5.70;5.20;;;;;;;;;;5003283;28;20193;-58
2022/04/24 06:31:05;;;;;;;6.97;5.60;;;;;;;;;;5001887;28;20233;-58
2022/04/24 06:33:31;;;;;;;6.57;6.00;;;;;;;;;;5002508;28;20197;-58
2022/04/24 06:35:57;;;;;;;7.10;5.87;;;;;;;;;;5003652;28;20320;-58
2022/04/24 06:38:24;;;;;;;6.10;5.60;;;;;;;;;;5004207;28;20197;-58
2022/04/24 06:40:50;;;;;;;5.80;5.20;;;;;;;;;;5002238;28;20720;-57
2022/04/24 06:43:16;;;;;;;6.10;5.60;;;;;;;;;;4998727;28;20182;-57
2022/04/24 06:45:42;;;;;;;6.77;6.10;;;;;;;;;;4995340;28;20192;-57
2022/04/24 06:48:09;;;;;;;5.90;5.43;;;;;;;;;;4993490;28;20193;-58
2022/04/24 06:50:35;;;;;;;6.40;5.90;;;;;;;;;;4998034;28;20181;-57
2022/04/24 06:53:02;;;;;;;6.33;5.73;;;;;;;;;;5011487;28;20718;-57
2022/04/24 06:55:28;;;;;;;6.00;5.40;;;;;;;;;;5006838;28;20193;-57
2022/04/24 06:57:54;;;;;;;6.37;5.87;;;;;;;;;;5004459;28;20193;-57
2022/04/24 07:00:20;;;;;;;6.17;5.67;;;;;;;;;;5007794;28;24882;-57
2022/04/24 07:02:47;;;;;;;6.33;5.77;;;;;;;;;;5015892;28;20199;-57
2022/04/24 07:05:13;;;;;;;7.03;6.30;;;;;;;;;;4997312;28;20257;-58
2022/04/24 07:07:39;;;;;;;6.90;5.10;;;;;;;;;;4990104;28;20219;-58
2022/04/24 07:10:05;;;;;;;6.20;5.70;;;;;;;;;;5000841;28;20205;-57
2022/04/24 07:12:31;;;;;;;6.33;5.77;;;;;;;;;;5011834;28;20519;-58
2022/04/24 07:14:57;;;;;;;5.50;5.10;;;;;;;;;;5005066;28;20224;-58
2022/04/24 07:17:23;;;;;;;6.20;5.53;;;;;;;;;;5006886;28;20193;-58
2022/04/24 07:19:49;;;;;;;6.13;5.63;;;;;;;;;;4992354;28;20302;-58
2022/04/24 07:22:17;;;;;;;5.93;5.43;;;;;;;;;;4999561;28;20244;-57
2022/04/24 07:24:43;;;;;;;6.33;5.83;;;;;;;;;;5000522;28;25449;-58
2022/04/24 07:27:08;;;;;;;5.70;5.20;;;;;;;;;;4994754;28;20912;-58
2022/04/24 07:29:34;;;;;;;5.80;5.23;;;;;;;;;;4999913;28;20188;-58
2022/04/24 07:32:00;;;;;;;6.47;5.80;;;;;;;;;;5002926;28;20232;-58
2022/04/24 07:34:26;;;;;;;6.60;5.30;;;;;;;;;;5005202;28;20201;-58
2022/04/24 07:36:52;;;;;;;6.50;5.90;;;;;;;;;;4998437;28;20219;-58
2022/04/24 07:39:18;;;;;;;6.53;5.93;;;;;;;;;;4999102;28;20218;-58
2022/04/24 07:41:44;;;;;;;6.83;5.30;;;;;;;;;;5001733;28;20197;-57
2022/04/24 07:44:10;;;;;;;5.03;4.53;;;;;;;;;;5002402;28;20191;-58
2022/04/24 07:46:36;;;;;;;5.73;5.23;;;;;;;;;;5000492;28;20193;-57
2022/04/24 07:49:02;;;;;;;6.20;5.67;;;;;;;;;;4996128;28;20722;-57
2022/04/24 07:51:28;;;;;;;6.30;4.90;;;;;;;;;;4987642;28;20193;-57
2022/04/24 07:53:54;;;;;;;5.57;5.00;;;;;;;;;;4982950;28;20194;-57
2022/04/24 07:56:20;;;;;;;4.80;4.40;;;;;;;;;;4992597;28;20656;-58
2022/04/24 07:58:46;;;;;;;5.77;5.30;;;;;;;;;;4995643;28;20182;-58
2022/04/24 08:01:16;;;;;;;5.40;4.90;;;;;;;;;;4989242;28;20193;-58
2022/04/24 08:03:42;;;;;;;9.67;4.67;;;;;;;;;;4974860;28;20239;-58
2022/04/24 08:06:08;;;;;;;5.73;5.30;;;;;;;;;;4971863;28;20541;-57
2022/04/24 08:08:34;;;;;;;5.50;5.07;;;;;;;;;;4992666;28;20310;-58
2022/04/24 08:11:00;;;;;;;4.63;4.33;;;;;;;;;;4984548;28;20864;-59
2022/04/24 08:13:26;;;;;;;5.30;4.90;;;;;;;;;;4992559;28;20735;-57
2022/04/24 08:15:52;;;;;;;5.20;4.80;;;;;;;;;;4975092;28;20198;-57
2022/04/24 08:18:18;;;;;;;6.87;4.53;;;;;;;;;;5002064;28;20685;-58
2022/04/24 08:20:44;;;;;;;5.05;4.65;;;;;;;;;;4990098;28;20209;-58
2022/04/24 08:23:11;;;;;;;8.18;4.50;;;;;;;;;;5003570;28;20182;-58
2022/04/24 08:25:37;;;;;;;6.57;4.63;;;;;;;;;;5000928;28;20591;-60
2022/04/24 08:28:06;;;;;;;5.55;5.05;;;;;;;;;;5002986;28;20180;-58
2022/04/24 08:30:33;;;;;;;5.72;5.20;;;;;;;;;;4997650;28;20185;-60
2022/04/24 08:32:59;;;;;;;5.72;5.20;;;;;;;;;;4996286;28;20194;-58
2022/04/24 08:35:25;;;;;;;7.20;5.60;;;;;;;;;;4993041;28;20195;-58
2022/04/24 08:37:51;;;;;;;5.50;5.00;;;;;;;;;;4998706;28;20196;-60
2022/04/24 08:40:17;;;;;;;4.95;4.53;;;;;;;;;;4999873;28;20240;-62
2022/04/24 08:42:43;;;;;;;5.43;4.93;;;;;;;;;;4998685;28;20594;-60
2022/04/24 08:45:10;;;;;;;7.97;5.30;;;;;;;;;;4995322;28;20190;-61
2022/04/24 08:47:36;;;;;;;6.90;5.05;;;;;;;;;;5000003;28;21048;-57
2022/04/24 08:50:02;;;;;;;10.13;6.13;;;;;;;;;;5003344;28;20667;-60
2022/04/24 13:41:09;;;;;;;11.07;5.87;;;;;;;;;;5107335;27;20545;-55
2022/04/24 13:43:36;;;;;;;6.00;5.50;;;;;;;;;;5080282;28;20178;-56
2022/04/24 13:46:03;;;;;;;5.90;5.13;;;;;;;;;;5074364;28;20596;-54
2022/04/24 13:48:30;;;;;;;5.00;4.60;;;;;;;;;;5079278;28;20219;-56
2022/04/24 13:50:56;;;;;;;6.03;5.50;;;;;;;;;;5076643;28;20194;-56
2022/04/24 13:53:26;;;;;;;5.85;5.15;;;;;;;;;;5078958;28;20312;-56
2022/04/24 13:55:52;;;;;;;5.35;4.88;;;;;;;;;;5081969;28;20191;-55
2022/04/24 13:58:20;;;;;;;6.18;5.43;;;;;;;;;;5079175;28;20194;-55
2022/04/24 14:00:46;;;;;;;5.75;5.10;;;;;;;;;;5073561;28;20591;-56
2022/04/24 14:03:15;;;;;;;7.07;5.25;;;;;;;;;;5079602;28;20182;-56
2022/04/24 14:05:41;;;;;;;5.60;5.10;;;;;;;;;;5078621;28;20817;-57
2022/04/24 14:08:08;;;;;;;5.70;5.13;;;;;;;;;;5080140;28;20218;-54
2022/04/24 14:10:34;;;;;;;5.85;5.35;;;;;;;;;;5067706;28;20201;-53
2022/04/24 14:13:00;;;;;;;5.00;4.60;;;;;;;;;;5076122;28;20301;-54
2022/04/24 14:15:27;;;;;;;5.60;5.00;;;;;;;;;;5080252;28;20534;-54
2022/04/24 14:17:56;;;;;;;5.63;5.13;;;;;;;;;;5071468;28;20182;-54
2022/04/24 14:20:22;;;;;;;6.83;5.50;;;;;;;;;;5082961;28;20194;-54
2022/04/24 14:22:48;;;;;;;73.53;9.67;;;;;;;;;;5081147;28;20187;-53
2022/04/24 14:25:14;;;;;;;4.97;4.57;;;;;;;;;;5080849;28;20187;-53
2022/04/24 14:27:40;;;;;;;9.43;5.20;;;;;;;;;;5072654;28;20191;-53
2022/04/24 14:30:07;;;;;;;7.93;4.50;;;;;;;;;;5069060;28;20225;-53
2022/04/24 14:32:33;;;;;;;9.32;4.13;;;;;;;;;;5071674;28;20187;-53
2022/04/24 14:34:59;;;;;;;5.50;4.93;;;;;;;;;;5055180;28;20988;-54
2022/04/24 14:37:26;;;;;;;5.10;4.60;;;;;;;;;;5065607;28;20206;-54
2022/04/24 14:39:52;;;;;;;6.63;5.60;;;;;;;;;;5069462;28;20328;-54
2022/04/24 14:42:18;;;;;;;6.00;5.40;;;;;;;;;;5067207;28;20558;-54
2022/04/24 14:44:44;;;;;;;5.73;5.00;;;;;;;;;;5073945;28;20764;-54
2022/04/24 14:58:08;;;;;;;6.10;5.50;;;;;;;;;;5064522;28;20902;-53
2022/04/24 15:00:34;;;;;;;7.57;5.27;;;;;;;;;;5065886;28;20250;-54
2022/04/24 15:03:03;;;;;;;7.30;5.70;;;;;;;;;;5068383;28;20195;-55
2022/04/24 15:05:29;;;;;;;6.40;5.80;;;;;;;;;;5056390;28;20176;-56
2022/04/24 15:07:55;;;;;;;8.57;5.57;;;;;;;;;;5065368;28;20302;-55
2022/04/24 15:10:21;;;;;;;8.50;5.33;;;;;;;;;;5066763;28;20190;-55
2022/04/24 15:12:47;;;;;;;9.03;8.17;;;;;;;;;;5060348;28;20279;-54
2022/04/24 15:15:13;;;;;;;7.20;5.77;;;;;;;;;;5060961;28;20195;-55
2022/04/24 15:17:39;;;;;;;8.23;5.47;;;;;;;;;;5065327;28;20187;-56
2022/04/24 15:20:05;;;;;;;7.07;5.70;;;;;;;;;;5067481;28;20671;-55
2022/04/24 15:22:31;;;;;;;7.53;6.60;;;;;;;;;;5055749;28;20187;-57
2022/04/24 15:24:57;;;;;;;7.33;6.13;;;;;;;;;;5062559;28;20586;-54
2022/04/24 15:27:23;;;;;;;5.73;4.97;;;;;;;;;;5062180;28;20178;-56
2022/04/24 15:29:49;;;;;;;6.10;5.40;;;;;;;;;;5064679;28;20183;-56
2022/04/24 15:32:15;;;;;;;6.10;4.80;;;;;;;;;;5059211;28;20199;-57
2022/04/24 15:34:41;;;;;;;5.40;4.90;;;;;;;;;;5062669;28;20187;-57
2022/04/24 15:37:07;;;;;;;5.15;4.65;;;;;;;;;;5063441;28;20195;-56
2022/04/24 15:39:34;;;;;;;5.90;5.10;;;;;;;;;;5055270;28;20234;-56
2022/04/24 15:42:01;;;;;;;5.38;4.80;;;;;;;;;;5064903;28;20266;-58
2022/04/24 15:45:10;;;;;;;7.07;5.00;;;;;;;;;;5061266;28;20191;-59
2022/04/24 15:47:13;;;;;;;5.10;4.60;;;;;;;;;;5060114;28;20854;-57
2022/04/24 15:49:39;;;;;;;6.20;5.60;;;;;;;;;;5055031;28;20199;-57
2022/04/24 15:52:05;;;;;;;5.10;4.50;;;;;;;;;;5058564;28;20385;-59
2022/04/24 15:54:31;;;;;;;5.30;4.90;;;;;;;;;;5063434;28;20273;-59
2022/04/24 15:56:58;;;;;;;5.33;4.83;;;;;;;;;;5063506;28;20187;-59
2022/04/24 15:59:24;;;;;;;4.97;4.50;;;;;;;;;;5062644;28;20773;-59
2022/04/24 16:01:50;;;;;;;7.90;4.93;;;;;;;;;;5066095;28;20710;-59
2022/04/24 16:04:16;;;;;;;5.50;4.80;;;;;;;;;;5060402;28;20261;-57
2022/04/24 16:06:42;;;;;;;5.47;4.57;;;;;;;;;;5064327;28;20206;-58
2022/04/24 16:09:08;;;;;;;5.70;4.63;;;;;;;;;;5066703;28;20643;-58
2022/04/24 16:11:34;;;;;;;5.53;5.03;;;;;;;;;;5062081;28;20209;-58
2022/04/24 16:14:01;;;;;;;5.63;4.83;;;;;;;;;;5057104;28;20197;-58
2022/04/24 16:16:30;;;;;;;5.77;5.27;;;;;;;;;;5058349;28;20271;-57
2022/04/24 16:18:56;;;;;;;5.60;5.10;;;;;;;;;;5060449;28;20199;-58
2022/04/24 16:21:22;;;;;;;5.70;5.20;;;;;;;;;;5058852;28;20187;-59
2022/04/24 16:23:48;;;;;;;5.83;5.23;;;;;;;;;;5052561;28;20187;-56
2022/04/24 16:26:17;;;;;;;6.13;4.90;;;;;;;;;;5058749;28;20662;-55
2022/04/24 16:28:45;;;;;;;6.27;5.10;;;;;;;;;;5064214;28;20277;-54
2022/04/24 16:31:11;;;;;;;5.93;5.43;;;;;;;;;;5058953;28;20183;-55
2022/04/24 16:33:37;;;;;;;6.33;5.10;;;;;;;;;;5053256;28;20191;-54
2022/04/24 16:36:06;;;;;;;5.70;4.40;;;;;;;;;;5062832;28;20187;-55
2022/04/24 16:38:31;;;;;;;5.03;4.50;;;;;;;;;;5056358;28;20194;-54
2022/04/24 16:40:58;;;;;;;5.37;4.87;;;;;;;;;;5062355;28;20238;-55
2022/04/24 16:43:24;;;;;;;4.93;3.93;;;;;;;;;;5055300;28;20198;-55
2022/04/24 16:45:50;;;;;;;7.47;4.70;;;;;;;;;;5054161;28;20179;-56
2022/04/24 16:48:16;;;;;;;5.20;4.70;;;;;;;;;;5048478;28;20245;-54
2022/04/24 16:58:56;;;;;;;4.23;3.80;;;;;;;;;;5050260;28;22081;-52
2022/04/24 17:01:22;;;;;;;6.10;3.87;;;;;;;;;;5053054;28;20180;-52
2022/04/24 17:03:48;;;;;;;4.83;4.13;;;;;;;;;;5039857;28;20781;-52
2022/04/24 17:06:15;;;;;;;4.00;3.70;;;;;;;;;;5053337;28;20193;-52
2022/04/24 17:08:41;;;;;;;4.03;3.53;;;;;;;;;;5044245;28;20205;-53
2022/04/24 17:11:07;;;;;;;5.93;3.63;;;;;;;;;;5044473;28;20198;-53
2022/04/24 17:13:33;;;;;;;6.37;3.73;;;;;;;;;;5046198;28;20690;-52
2022/04/24 17:15:59;;;;;;;4.32;3.63;;;;;;;;;;5048688;28;20915;-52
2022/04/24 17:18:26;;;;;;;4.97;4.47;;;;;;;;;;5062434;28;20191;-55
2022/04/24 17:20:54;;;;;;;6.10;4.93;;;;;;;;;;5060822;28;20211;-56
2022/04/24 17:23:20;;;;;;;4.47;4.17;;;;;;;;;;5055316;28;20244;-53
2022/04/24 17:25:46;;;;;;;4.87;4.23;;;;;;;;;;5063824;28;20652;-53
2022/04/24 17:28:14;;;;;;;5.53;3.83;;;;;;;;;;5064617;28;20205;-53
2022/04/24 17:30:41;;;;;;;4.97;4.53;;;;;;;;;;5055285;28;20214;-53
2022/04/24 17:33:07;;;;;;;5.00;4.00;;;;;;;;;;5057572;28;20187;-53
2022/04/24 17:35:33;;;;;;;4.43;3.80;;;;;;;;;;5066419;28;20259;-53
2022/04/24 17:37:59;;;;;;;4.23;3.83;;;;;;;;;;5070890;28;20856;-53
2022/04/24 17:40:26;;;;;;;5.23;3.90;;;;;;;;;;5068833;28;20567;-53
2022/04/24 17:42:56;;;;;;;3.80;3.50;;;;;;;;;;5068373;28;20193;-52
2022/04/24 17:45:22;;;;;;;4.07;3.77;;;;;;;;;;5064262;28;20274;-53
2022/04/24 17:47:49;;;;;;;4.07;3.77;;;;;;;;;;5070096;28;20768;-53
2022/04/24 17:50:15;;;;;;;5.63;3.70;;;;;;;;;;5074933;28;20188;-53
2022/04/24 17:52:42;;;;;;;4.60;4.20;;;;;;;;;;5060698;28;20263;-53
2022/04/24 17:55:08;;;;;;;5.80;3.73;;;;;;;;;;5056601;28;20694;-52
2022/04/24 17:57:34;;;;;;;4.30;3.80;;;;;;;;;;5057885;28;20187;-53
2022/04/24 18:00:00;;;;;;;4.13;3.80;;;;;;;;;;5064789;28;20211;-53
2022/04/24 18:02:28;;;;;;;3.90;3.60;;;;;;;;;;5066073;28;20822;-53
2022/04/24 18:04:54;;;;;;;4.20;3.63;;;;;;;;;;5070388;28;20191;-53
2022/04/24 18:07:20;;;;;;;4.20;3.80;;;;;;;;;;5067201;28;20248;-54
2022/04/24 18:09:46;;;;;;;3.77;3.47;;;;;;;;;;5060483;28;20192;-53
2022/04/24 18:12:12;;;;;;;4.17;3.77;;;;;;;;;;5066460;28;20270;-53
2022/04/24 18:14:38;;;;;;;3.80;3.40;;;;;;;;;;5070670;28;20194;-54
2022/04/24 18:17:04;;;;;;;4.00;3.53;;;;;;;;;;5071074;28;20274;-54
2022/04/24 18:19:30;;;;;;;4.80;4.10;;;;;;;;;;5065258;28;20238;-54
2022/04/24 18:21:58;;;;;;;6.97;3.90;;;;;;;;;;5070549;28;20191;-54
2022/04/24 18:24:25;;;;;;;4.23;3.87;;;;;;;;;;5065216;28;20650;-53
2022/04/24 18:26:51;;;;;;;4.50;4.10;;;;;;;;;;5073117;28;20297;-52
2022/04/24 18:29:17;;;;;;;5.43;4.00;;;;;;;;;;5073188;28;20195;-52
2022/04/24 18:31:43;;;;;;;5.50;3.80;;;;;;;;;;5064672;28;20209;-51
2022/04/24 18:34:09;;;;;;;8.63;3.90;;;;;;;;;;5059309;28;20425;-51
2022/04/24 18:39:20;;;;;;;3.87;3.50;;;;;;;;;;5064845;28;20319;-53
2022/04/24 18:41:47;;;;;;;5.47;3.80;;;;;;;;;;5055284;28;20596;-52
2022/04/24 18:44:13;;;;;;;5.37;3.60;;;;;;;;;;5060042;28;20182;-53
2022/04/24 18:46:40;;;;;;;4.03;3.57;;;;;;;;;;5059682;28;20175;-53
2022/04/24 18:49:06;;;;;;;4.40;3.73;;;;;;;;;;5063163;28;20672;-54
2022/04/24 18:51:33;;;;;;;6.80;3.67;;;;;;;;;;5060210;28;20264;-53
2022/04/24 18:53:59;;;;;;;4.30;3.90;;;;;;;;;;5059706;28;20622;-53
2022/04/24 18:56:25;;;;;;;3.53;3.20;;;;;;;;;;5074549;28;20206;-52
2022/04/24 18:58:52;;;;;;;4.73;3.57;;;;;;;;;;5071510;28;20206;-53
2022/04/24 19:01:18;;;;;;;3.97;3.50;;;;;;;;;;5070352;28;20195;-53
2022/04/24 19:07:32;;;;;;;3.70;3.40;;;;;;;;;;5081277;28;20209;-53
2022/04/24 19:09:15;;;;;;;4.20;3.80;;;;;;;;;;5071941;28;20203;-53
2022/04/24 19:11:41;;;;;;;4.70;3.80;;;;;;;;;;5073473;28;20199;-53
2022/04/24 19:14:07;;;;;;;3.93;3.63;;;;;;;;;;5069491;28;20651;-53
2022/04/24 19:16:33;;;;;;;4.20;3.80;;;;;;;;;;5068821;28;20187;-53
2022/04/24 19:19:00;;;;;;;6.03;4.20;;;;;;;;;;5074481;28;20665;-53
2022/04/24 19:21:27;;;;;;;7.80;4.07;;;;;;;;;;5075262;28;20243;-52
2022/04/24 19:23:53;;;;;;;6.60;3.90;;;;;;;;;;5077317;28;20244;-52
2022/04/24 19:26:19;;;;;;;6.97;3.77;;;;;;;;;;5075804;28;20234;-53
2022/04/24 19:28:45;;;;;;;4.20;3.80;;;;;;;;;;5072516;28;20190;-53
2022/04/24 19:31:11;;;;;;;6.20;4.20;;;;;;;;;;5076265;28;20194;-53
2022/04/24 19:33:37;;;;;;;4.03;3.73;;;;;;;;;;5073210;28;20575;-53
2022/04/24 19:36:03;;;;;;;4.60;4.23;;;;;;;;;;5075931;28;20304;-53
2022/04/24 19:38:29;;;;;;;4.97;4.53;;;;;;;;;;5071692;28;20202;-52
2022/04/24 19:40:56;;;;;;;8.70;4.67;;;;;;;;;;5070029;28;21163;-52
2022/04/24 19:43:24;;;;;;;6.33;4.30;;;;;;;;;;5075398;28;20221;-53
2022/04/24 19:45:50;;;;;;;5.87;4.27;;;;;;;;;;5078700;28;20179;-53
2022/04/24 19:51:00;;;;;;;4.57;4.00;;;;;;;;;;5062402;28;20251;-52
2022/04/24 19:53:26;;;;;;;9.30;4.17;;;;;;;;;;5075394;28;20732;-53